Time;durP1;ratioP1;P1;durP2;ratioP2;P2;SDS_P1;SDS_P2;PMS_P1;PMS_P2;Temp;Humidity;BMP_temperature;BMP_pressure;BME280_temperature;BME280_humidity;BME280_pressure;Samples;Min_cycle;Max_cycle;Signal;HPM_P1;HPM_P2
2022/05/30 00:01:43;;;;;;;0.40;0.30;;;;;;;17.51;100.00;94599.69;5072711;28;20434;-62
2022/05/30 00:04:14;;;;;;;0.40;0.30;;;;;;;16.62;100.00;94524.53;5072583;28;20475;-62
2022/05/30 00:06:42;;;;;;;0.50;0.40;;;;;;;17.31;100.00;94608.53;5072060;28;20512;-62
2022/05/30 00:09:14;;;;;;;0.40;0.30;;;;;;;17.51;100.00;94604.25;5073032;28;20456;-62
2022/05/30 00:11:45;;;;;;;0.40;0.30;;;;;;;17.17;100.00;94546.44;5071940;28;20511;-62
2022/05/30 00:14:13;;;;;;;0.50;0.50;;;;;;;17.61;100.00;94585.91;5072260;28;20524;-61
2022/05/30 00:16:42;;;;;;;5.83;1.07;;;;;;;17.66;100.00;94598.28;5072586;28;20461;-62
2022/05/30 00:19:10;;;;;;;1.70;0.33;;;;;;;17.66;100.00;94609.81;5072380;28;20509;-62
2022/05/30 00:21:39;;;;;;;0.87;0.87;;;;;;;17.47;100.00;94573.88;5072613;28;20876;-61
2022/05/30 00:24:08;;;;;;;0.40;0.20;;;;;;;17.51;100.00;94602.34;5072180;28;20935;-61
2022/05/30 00:26:38;;;;;;;0.40;0.20;;;;;;;16.90;100.00;94512.94;5072211;28;20519;-62
2022/05/30 00:29:07;;;;;;;0.40;0.20;;;;;;;17.59;100.00;94603.41;5072406;28;20414;-62
2022/05/30 00:31:36;;;;;;;0.40;0.30;;;;;;;17.64;100.00;94600.53;5072019;28;20472;-62
2022/05/30 00:34:07;;;;;;;0.40;0.30;;;;;;;17.67;100.00;94613.28;5070652;28;20972;-61
2022/05/30 00:36:37;;;;;;;2.63;0.60;;;;;;;17.07;100.00;94603.06;5071763;28;20465;-62
2022/05/30 00:39:05;;;;;;;2.10;0.30;;;;;;;17.21;100.00;94603.56;5071624;28;20457;-61
2022/05/30 00:41:38;;;;;;;1.67;0.60;;;;;;;17.36;100.00;94607.53;5072377;28;20489;-61
2022/05/30 00:44:06;;;;;;;0.40;0.20;;;;;;;17.39;100.00;94604.19;5072051;28;20484;-61
2022/05/30 00:46:35;;;;;;;16.83;0.60;;;;;;;17.45;100.00;94611.72;5072332;28;20421;-61
2022/05/30 00:49:06;;;;;;;0.40;0.30;;;;;;;17.49;100.00;94617.97;5071251;28;20469;-61
2022/05/30 00:51:45;;;;;;;4.93;1.53;;;;;;;17.37;100.00;94614.47;5071792;28;20519;-61
2022/05/30 00:54:31;;;;;;;6.80;3.30;;;;;;;17.36;100.00;94621.72;5071741;28;20421;-61
2022/05/30 00:57:21;;;;;;;0.40;0.27;;;;;;;17.38;100.00;94635.56;5072355;28;20515;-61
2022/05/30 00:59:53;;;;;;;0.50;0.40;;;;;;;17.20;100.00;94620.75;5071599;28;20474;-61
2022/05/30 01:02:24;;;;;;;0.60;0.50;;;;;;;17.09;100.00;94624.94;5072019;28;20421;-61
2022/05/30 01:07:43;;;;;;;0.40;0.40;;;;;;;17.19;100.00;94632.56;5071569;28;20567;-61
2022/05/30 01:10:14;;;;;;;0.40;0.30;;;;;;;17.02;100.00;94635.38;5071687;28;20512;-62
2022/05/30 01:12:49;;;;;;;0.50;0.30;;;;;;;17.03;100.00;94634.25;5071507;28;20552;-63
2022/05/30 01:15:18;;;;;;;0.50;0.40;;;;;;;16.88;100.00;94634.81;5071607;28;20492;-62
2022/05/30 01:17:53;;;;;;;0.40;0.20;;;;;;;17.00;100.00;94637.59;5071559;28;21188;-62
2022/05/30 01:20:36;;;;;;;0.53;0.33;;;;;;;16.87;100.00;94619.91;5071437;28;20512;-61
2022/05/30 01:23:42;;;;;;;0.40;0.30;;;;;;;16.89;100.00;94628.38;5071728;28;20441;-62
2022/05/30 01:26:38;;;;;;;0.40;0.20;;;;;;;16.99;100.00;94638.69;5071385;28;20501;-63
2022/05/30 01:29:12;;;;;;;0.40;0.20;;;;;;;17.03;100.00;94636.94;5071688;28;20854;-61
2022/05/30 01:31:41;;;;;;;0.40;0.20;;;;;;;17.03;100.00;94642.28;5071372;28;20855;-61
2022/05/30 01:34:09;;;;;;;0.47;0.37;;;;;;;17.08;100.00;94656.28;5071401;28;20982;-61
2022/05/30 01:36:38;;;;;;;0.50;0.30;;;;;;;16.05;100.00;94508.16;5071184;28;20473;-61
2022/05/30 01:39:07;;;;;;;0.40;0.30;;;;;;;17.06;100.00;94650.47;5071190;28;20990;-61
2022/05/30 01:41:35;;;;;;;0.50;0.30;;;;;;;17.06;100.00;94647.78;5071579;28;20491;-61
2022/05/30 01:44:04;;;;;;;2.93;0.93;;;;;;;17.02;100.00;94646.88;5071247;28;20432;-61
2022/05/30 01:46:35;;;;;;;0.40;0.20;;;;;;;17.01;100.00;94641.84;5072471;28;20494;-61
2022/05/30 01:49:04;;;;;;;0.40;0.27;;;;;;;16.98;100.00;94647.84;5075209;28;20429;-61
2022/05/30 01:51:33;;;;;;;0.43;0.30;;;;;;;16.94;100.00;94652.28;5074523;28;21038;-61
2022/05/30 01:54:02;;;;;;;1.00;0.83;;;;;;;16.84;100.00;94649.97;5074764;28;20523;-61
2022/05/30 01:56:30;;;;;;;0.87;0.60;;;;;;;16.80;100.00;94643.72;5075039;28;20871;-61
2022/05/30 01:58:59;;;;;;;0.50;0.40;;;;;;;16.73;100.00;94646.09;5074503;28;20433;-61
2022/05/30 02:01:29;;;;;;;0.50;0.30;;;;;;;16.14;100.00;94560.47;5076165;28;20476;-60
2022/05/30 02:04:01;;;;;;;0.40;0.30;;;;;;;16.36;100.00;94613.69;5075187;28;20459;-60
2022/05/30 02:06:31;;;;;;;0.40;0.20;;;;;;;16.76;100.00;94640.91;5074855;28;20933;-60
2022/05/30 02:09:00;;;;;;;0.40;0.30;;;;;;;16.80;100.00;94644.47;5074631;28;20475;-60
2022/05/30 02:11:29;;;;;;;0.40;0.40;;;;;;;16.89;100.00;94649.78;5075048;28;20453;-60
2022/05/30 02:13:57;;;;;;;0.50;0.40;;;;;;;15.58;100.00;94464.69;5074587;28;20530;-60
2022/05/30 02:19:14;;;;;;;0.40;0.30;;;;;;;16.74;100.00;94647.69;5074853;28;20437;-60
2022/05/30 02:21:43;;;;;;;7.20;1.23;;;;;;;16.77;100.00;94655.06;5074270;28;20429;-60
2022/05/30 02:24:11;;;;;;;0.40;0.20;;;;;;;16.78;100.00;94649.38;5074455;28;20521;-60
2022/05/30 02:26:40;;;;;;;0.40;0.30;;;;;;;16.65;100.00;94655.75;5074252;28;20567;-60
2022/05/30 02:29:08;;;;;;;2.93;0.93;;;;;;;16.61;100.00;94665.53;5074269;28;20445;-60
2022/05/30 02:31:37;;;;;;;1.63;1.53;;;;;;;16.64;100.00;94674.81;5074398;28;20456;-60
2022/05/30 02:36:53;;;;;;;0.40;0.20;;;;;;;16.71;100.00;94667.06;5074337;28;20486;-60
2022/05/30 02:39:23;;;;;;;0.40;0.30;;;;;;;16.72;100.00;94668.63;5074275;28;20436;-60
2022/05/30 02:41:53;;;;;;;0.40;0.30;;;;;;;16.67;100.00;94679.53;5074280;28;20520;-60
2022/05/30 02:44:23;;;;;;;0.40;0.20;;;;;;;16.57;100.00;94653.13;5074447;28;20584;-60
2022/05/30 02:46:53;;;;;;;0.50;0.40;;;;;;;16.69;100.00;94693.34;5074050;28;21008;-60
2022/05/30 02:49:23;;;;;;;1.57;1.43;;;;;;;16.67;100.00;94684.88;5074070;28;20445;-60
2022/05/30 02:51:53;;;;;;;0.50;0.40;;;;;;;16.60;100.00;94684.56;5073985;28;20918;-60
2022/05/30 02:54:22;;;;;;;0.50;0.30;;;;;;;15.10;100.00;94484.41;5073581;28;21058;-60
2022/05/30 02:56:52;;;;;;;1.03;0.47;;;;;;;16.09;100.00;94624.03;5073414;28;20852;-60
2022/05/30 02:59:22;;;;;;;0.40;0.30;;;;;;;16.52;100.00;94686.16;5073404;28;20425;-60
2022/05/30 03:01:50;;;;;;;0.40;0.30;;;;;;;16.56;100.00;94694.34;5073633;28;20520;-60
2022/05/30 03:04:19;;;;;;;0.50;0.30;;;;;;;16.55;100.00;94700.78;5073768;28;20923;-60
2022/05/30 03:06:48;;;;;;;0.40;0.30;;;;;;;16.49;100.00;94706.28;5073185;28;20425;-60
2022/05/30 03:09:19;;;;;;;0.40;0.30;;;;;;;15.68;100.00;94589.91;5074290;28;20852;-60
2022/05/30 03:11:47;;;;;;;1.67;0.97;;;;;;;15.96;100.00;94689.97;5073726;28;20436;-60
2022/05/30 03:14:16;;;;;;;6.57;0.73;;;;;;;15.56;100.00;94713.41;5073431;28;20460;-60
2022/05/30 03:16:44;;;;;;;0.70;0.70;;;;;;;15.54;100.00;94694.22;5073745;28;20465;-60
2022/05/30 03:19:13;;;;;;;0.40;0.30;;;;;;;15.97;100.00;94715.56;5073839;28;20520;-60
2022/05/30 03:21:41;;;;;;;0.50;0.33;;;;;;;15.96;100.00;94708.66;5073666;28;20433;-60
2022/05/30 03:24:09;;;;;;;0.60;0.50;;;;;;;16.03;100.00;94718.88;5073230;28;20437;-60
2022/05/30 03:26:39;;;;;;;0.40;0.40;;;;;;;14.88;100.00;94545.19;5073270;28;21080;-59
2022/05/30 03:29:08;;;;;;;0.40;0.30;;;;;;;15.85;100.00;94734.13;5073080;28;20433;-59
2022/05/30 03:31:36;;;;;;;0.40;0.20;;;;;;;15.92;100.00;94750.47;5073325;28;20524;-60
2022/05/30 03:34:05;;;;;;;0.90;0.40;;;;;;;16.09;100.00;94753.13;5073025;28;20461;-60
2022/05/30 03:36:33;;;;;;;0.40;0.30;;;;;;;15.80;100.00;94748.44;5073133;28;20476;-59
2022/05/30 03:39:02;;;;;;;1.03;0.57;;;;;;;16.00;100.00;94764.94;5073130;28;20513;-59
2022/05/30 03:41:30;;;;;;;2.03;1.90;;;;;;;16.09;100.00;94761.13;5072933;28;20468;-60
2022/05/30 03:44:01;;;;;;;0.50;0.30;;;;;;;16.05;100.00;94760.22;5072697;28;20461;-60
2022/05/30 03:46:30;;;;;;;0.40;0.20;;;;;;;16.27;100.00;94756.53;5072871;28;20437;-59
2022/05/30 03:48:58;;;;;;;0.40;0.37;;;;;;;16.33;100.00;94763.31;5073355;28;20860;-60
2022/05/30 03:51:27;;;;;;;5.23;0.77;;;;;;;16.19;100.00;94739.41;5072672;28;20517;-60
2022/05/30 03:53:55;;;;;;;0.83;0.83;;;;;;;16.21;100.00;94765.84;5073032;28;20606;-60
2022/05/30 03:56:24;;;;;;;0.40;0.30;;;;;;;16.32;100.00;94754.50;5072998;28;20471;-60
2022/05/30 03:58:52;;;;;;;0.93;0.93;;;;;;;16.52;100.00;94764.53;5073162;28;20868;-60
2022/05/30 04:01:24;;;;;;;0.50;0.30;;;;;;;16.59;100.00;94766.75;5072890;28;20457;-60
2022/05/30 04:03:52;;;;;;;1.30;1.23;;;;;;;16.62;100.00;94766.06;5072985;28;20468;-60
2022/05/30 04:06:21;;;;;;;1.10;0.87;;;;;;;16.66;100.00;94767.03;5072814;28;20938;-61
2022/05/30 04:08:51;;;;;;;0.40;0.40;;;;;;;16.70;100.00;94756.44;5072980;28;20426;-60
2022/05/30 04:11:19;;;;;;;0.50;0.40;;;;;;;16.69;100.00;94771.75;5074660;28;20452;-60
2022/05/30 04:13:48;;;;;;;0.93;0.30;;;;;;;16.79;100.00;94773.28;5072455;28;20559;-60
2022/05/30 04:16:16;;;;;;;0.40;0.30;;;;;;;16.90;100.00;94777.94;5072696;28;20440;-60
2022/05/30 04:18:47;;;;;;;1.23;1.23;;;;;;;16.97;100.00;94786.28;5072532;28;20452;-60
2022/05/30 04:21:15;;;;;;;0.93;0.60;;;;;;;17.07;100.00;94793.94;5072342;28;20475;-60
2022/05/30 04:23:44;;;;;;;0.77;0.77;;;;;;;17.15;100.00;94803.81;5071992;28;20438;-61
2022/05/30 04:26:15;;;;;;;0.40;0.30;;;;;;;17.19;100.00;94797.81;5072014;28;20941;-61
2022/05/30 04:28:44;;;;;;;0.40;0.30;;;;;;;17.27;100.00;94792.44;5072212;28;20433;-61
2022/05/30 04:31:14;;;;;;;0.50;0.33;;;;;;;17.22;100.00;94789.13;5072129;28;20461;-61
2022/05/30 04:33:43;;;;;;;0.77;0.47;;;;;;;17.19;100.00;94797.81;5072319;28;20476;-61
2022/05/30 04:36:15;;;;;;;1.67;0.77;;;;;;;17.15;100.00;94797.69;5072530;28;20441;-61
2022/05/30 04:38:44;;;;;;;0.40;0.30;;;;;;;17.26;100.00;94798.88;5072043;28;20491;-61
2022/05/30 04:41:12;;;;;;;0.60;0.40;;;;;;;17.15;100.00;94795.00;5071971;28;20429;-61
2022/05/30 04:43:40;;;;;;;0.40;0.30;;;;;;;17.41;100.00;94814.41;5071577;28;20473;-61
2022/05/30 04:46:14;;;;;;;0.40;0.30;;;;;;;17.40;100.00;94809.38;5071770;28;20821;-65
2022/05/30 04:48:44;;;;;;;0.50;0.40;;;;;;;17.93;100.00;94816.78;5072221;28;20448;-62
2022/05/30 04:51:15;;;;;;;0.50;0.50;;;;;;;18.13;100.00;94810.63;5071767;28;20516;-62
2022/05/30 04:53:43;;;;;;;0.40;0.30;;;;;;;18.17;100.00;94803.47;5071513;28;20974;-62
2022/05/30 04:56:12;;;;;;;0.60;0.30;;;;;;;18.49;100.00;94797.38;5071698;28;20516;-63
2022/05/30 04:58:40;;;;;;;0.50;0.30;;;;;;;18.60;100.00;94795.84;5071336;28;20429;-63
2022/05/30 05:01:10;;;;;;;2.50;0.40;;;;;;;18.63;100.00;94797.84;5071453;28;20452;-63
2022/05/30 05:03:40;;;;;;;0.40;0.30;;;;;;;18.67;100.00;94801.44;5071508;28;20512;-63
2022/05/30 05:06:11;;;;;;;0.63;0.50;;;;;;;18.76;100.00;94799.47;5071844;28;20500;-65
2022/05/30 05:08:49;;;;;;;0.57;0.40;;;;;;;18.55;100.00;94760.38;5071790;28;20476;-63
2022/05/30 05:11:20;;;;;;;0.70;0.50;;;;;;;18.92;100.00;94818.41;5071653;28;20474;-63
2022/05/30 05:13:49;;;;;;;0.50;0.40;;;;;;;19.13;100.00;94824.44;5071475;28;20970;-63
2022/05/30 05:16:19;;;;;;;0.40;0.30;;;;;;;19.40;100.00;94823.84;5071458;28;20461;-65
2022/05/30 05:18:48;;;;;;;6.10;1.40;;;;;;;19.55;100.00;94827.75;5071632;28;20422;-64
2022/05/30 05:21:19;;;;;;;0.60;0.30;;;;;;;19.61;100.00;94818.31;5070303;28;20498;-64
2022/05/30 05:23:53;;;;;;;0.40;0.30;;;;;;;19.51;100.00;94811.50;5071475;28;20444;-64
2022/05/30 05:26:22;;;;;;;0.70;0.60;;;;;;;20.00;100.00;94822.97;5071385;28;20504;-64
2022/05/30 05:28:51;;;;;;;0.40;0.20;;;;;;;20.25;100.00;94808.34;5071359;28;20469;-60
2022/05/30 05:31:24;;;;;;;1.37;0.50;;;;;;;19.86;100.00;94819.84;5071718;28;20472;-60
2022/05/30 05:33:54;;;;;;;0.40;0.30;;;;;;;19.73;100.00;94810.25;5071301;28;20421;-60
2022/05/30 05:36:30;;;;;;;0.50;0.40;;;;;;;19.82;100.00;94829.72;5071495;28;20510;-60
2022/05/30 05:39:00;;;;;;;0.50;0.50;;;;;;;19.99;100.00;94826.78;5071646;28;20487;-59
2022/05/30 05:41:29;;;;;;;0.80;0.60;;;;;;;20.27;100.00;94822.25;5071655;28;20465;-59
2022/05/30 05:43:58;;;;;;;2.97;1.23;;;;;;;19.60;100.00;94827.53;5071395;28;20429;-59
2022/05/30 05:46:28;;;;;;;4.83;0.90;;;;;;;19.29;100.00;94836.13;5071292;28;20973;-59
2022/05/30 05:48:58;;;;;;;0.60;0.50;;;;;;;19.10;100.00;94792.13;5071342;28;20793;-59
2022/05/30 05:51:27;;;;;;;0.97;0.97;;;;;;;19.64;100.00;94841.84;5071178;28;20467;-59
2022/05/30 05:53:57;;;;;;;1.30;1.20;;;;;;;19.17;100.00;94786.97;5071390;28;20605;-59
2022/05/30 05:56:29;;;;;;;1.03;0.70;;;;;;;19.64;100.00;94761.97;5071172;28;20528;-58
2022/05/30 05:58:58;;;;;;;3.53;0.50;;;;;;;20.44;100.00;94842.69;5071215;28;20429;-58
2022/05/30 06:01:29;;;;;;;0.40;0.30;;;;;;;20.86;100.00;94838.47;5071268;28;20464;-58
2022/05/30 06:03:59;;;;;;;0.70;0.50;;;;;;;20.97;100.00;94833.38;5071125;28;20433;-58
2022/05/30 06:06:28;;;;;;;0.80;0.77;;;;;;;21.49;100.00;94841.22;5070926;28;20429;-58
2022/05/30 06:09:04;;;;;;;0.60;0.60;;;;;;;21.89;100.00;94836.41;5071487;28;20825;-58
2022/05/30 06:11:36;;;;;;;0.50;0.40;;;;;;;21.68;100.00;94840.50;5071141;28;20425;-58
2022/05/30 06:14:05;;;;;;;0.63;0.63;;;;;;;22.20;100.00;94829.34;5071392;28;20898;-58
2022/05/30 06:16:39;;;;;;;1.70;1.20;;;;;;;22.29;100.00;94827.22;5070960;28;20516;-58
2022/05/30 06:19:09;;;;;;;0.40;0.30;;;;;;;22.74;100.00;94822.75;5071171;28;20424;-58
2022/05/30 06:21:40;;;;;;;0.40;0.30;;;;;;;22.48;100.00;94808.31;5070953;28;20457;-57
2022/05/30 06:24:10;;;;;;;1.33;0.40;;;;;;;22.67;100.00;94833.41;5070742;28;20434;-57
2022/05/30 06:26:44;;;;;;;1.50;0.57;;;;;;;22.47;100.00;94829.13;5070568;28;20495;-57
2022/05/30 06:29:14;;;;;;;0.40;0.40;;;;;;;22.84;100.00;94823.31;5071021;28;20820;-57
2022/05/30 06:31:43;;;;;;;0.40;0.30;;;;;;;23.54;94.81;94821.84;5070757;28;20469;-57
2022/05/30 06:34:12;;;;;;;0.50;0.40;;;;;;;23.94;89.82;94824.75;5072954;28;20437;-57
2022/05/30 06:36:42;;;;;;;0.40;0.20;;;;;;;24.08;89.30;94801.78;5074408;28;21010;-57
2022/05/30 06:39:11;;;;;;;0.40;0.30;;;;;;;24.07;87.57;94821.81;5074232;28;20425;-57
2022/05/30 06:41:42;;;;;;;0.57;0.33;;;;;;;24.34;83.13;94817.94;5073958;28;20503;-57
2022/05/30 06:44:12;;;;;;;0.40;0.30;;;;;;;24.08;78.06;94820.72;5074411;28;20452;-57
2022/05/30 06:46:40;;;;;;;0.40;0.30;;;;;;;24.30;80.65;94820.63;5074110;28;20528;-58
2022/05/30 06:49:08;;;;;;;0.77;0.77;;;;;;;25.02;68.07;94812.94;5074465;28;20508;-57
2022/05/30 06:51:37;;;;;;;0.40;0.30;;;;;;;25.28;66.71;94812.03;5074208;28;20460;-57
2022/05/30 06:54:07;;;;;;;0.50;0.30;;;;;;;24.91;65.15;94816.72;5073923;28;20437;-57
2022/05/30 06:58:11;;;;;;;0.40;0.20;;;;;;;25.25;64.45;94818.97;5074184;28;20516;-56
2022/05/30 06:59:30;;;;;;;0.40;0.30;;;;;;;25.03;68.18;94819.94;5073358;28;20434;-57
2022/05/30 07:02:00;;;;;;;0.60;0.50;;;;;;;24.79;69.33;94806.13;5074311;28;20425;-57
2022/05/30 07:04:31;;;;;;;0.37;0.27;;;;;;;24.88;69.55;94820.16;5074079;28;20465;-56
2022/05/30 07:07:02;;;;;;;0.50;0.40;;;;;;;24.46;67.18;94706.66;5073957;28;20516;-57
2022/05/30 07:09:31;;;;;;;0.40;0.30;;;;;;;25.47;66.21;94805.63;5073971;28;20426;-57
2022/05/30 07:12:00;;;;;;;0.50;0.40;;;;;;;25.67;67.14;94806.94;5073659;28;20468;-57
2022/05/30 07:14:30;;;;;;;0.50;0.30;;;;;;;25.99;63.82;94805.22;5074001;28;20645;-58
2022/05/30 07:16:58;;;;;;;0.40;0.30;;;;;;;26.20;63.23;94799.94;5073596;28;20500;-58
2022/05/30 07:19:27;;;;;;;0.83;0.83;;;;;;;26.42;56.24;94798.88;5073589;28;20425;-58
2022/05/30 07:21:55;;;;;;;0.57;0.33;;;;;;;26.81;60.87;94798.25;5073886;28;20429;-59
2022/05/30 07:24:24;;;;;;;0.40;0.40;;;;;;;27.30;52.88;94803.00;5073886;28;20457;-59
2022/05/30 07:26:52;;;;;;;0.40;0.30;;;;;;;27.25;55.29;94803.38;5073320;28;20568;-59
2022/05/30 07:29:21;;;;;;;0.40;0.40;;;;;;;27.05;56.76;94801.00;5073593;28;20453;-59
2022/05/30 07:31:50;;;;;;;0.50;0.30;;;;;;;27.08;57.86;94794.03;5073461;28;20422;-60
2022/05/30 07:34:19;;;;;;;0.47;0.40;;;;;;;27.12;56.48;94775.78;5073717;28;20504;-60
2022/05/30 07:36:47;;;;;;;0.40;0.30;;;;;;;27.45;51.83;94790.97;5073889;28;20558;-60
2022/05/30 07:39:16;;;;;;;0.40;0.30;;;;;;;27.49;48.38;94802.63;5073420;28;20465;-60
2022/05/30 07:41:44;;;;;;;0.40;0.30;;;;;;;27.95;47.97;94803.38;5073694;28;20478;-61
2022/05/30 07:44:13;;;;;;;0.67;0.50;;;;;;;27.27;47.78;94801.84;5073004;28;20469;-61
2022/05/30 07:46:43;;;;;;;0.67;0.60;;;;;;;27.24;48.29;94802.59;5072607;28;20528;-61
2022/05/30 07:49:13;;;;;;;0.70;0.70;;;;;;;27.89;46.92;94804.94;5073134;28;20487;-61
2022/05/30 07:51:44;;;;;;;0.90;0.70;;;;;;;27.30;48.41;94786.69;5073154;28;20825;-60
2022/05/30 07:54:13;;;;;;;1.70;1.60;;;;;;;27.68;50.19;94800.28;5073367;28;20429;-60
2022/05/30 07:56:42;;;;;;;0.50;0.50;;;;;;;27.63;49.08;94806.13;5072283;28;20557;-60
2022/05/30 07:59:10;;;;;;;0.73;0.53;;;;;;;27.23;53.14;94806.47;5072820;28;20930;-60
2022/05/30 08:01:39;;;;;;;0.60;0.57;;;;;;;26.72;49.38;94811.38;5072566;28;20468;-60
2022/05/30 08:04:12;;;;;;;0.40;0.40;;;;;;;26.82;50.11;94813.38;5072805;28;20476;-60
2022/05/30 08:06:42;;;;;;;0.40;0.33;;;;;;;27.32;49.48;94809.63;5072698;28;20503;-60
2022/05/30 08:09:10;;;;;;;7.40;0.47;;;;;;;27.92;47.99;94806.09;5072972;28;20414;-60
2022/05/30 08:11:39;;;;;;;0.43;0.40;;;;;;;28.93;44.84;94813.19;5072947;28;20426;-60
2022/05/30 08:14:07;;;;;;;0.40;0.30;;;;;;;29.17;42.79;94816.19;5072966;28;20511;-60
2022/05/30 08:16:37;;;;;;;0.50;0.50;;;;;;;28.99;43.44;94810.84;5072437;28;20532;-61
2022/05/30 08:19:22;;;;;;;0.40;0.33;;;;;;;29.21;42.54;94806.81;5072411;28;20424;-57
2022/05/30 08:22:12;;;;;;;0.40;0.40;;;;;;;29.93;41.99;94816.03;5072117;28;20437;-56
2022/05/30 08:24:43;;;;;;;0.40;0.40;;;;;;;29.08;42.14;94818.56;5072361;28;20453;-56
2022/05/30 08:27:12;;;;;;;0.70;0.57;;;;;;;29.57;44.11;94819.03;5071961;28;20496;-56
2022/05/30 08:29:42;;;;;;;0.90;0.63;;;;;;;29.60;43.58;94773.75;5072297;28;20777;-56
2022/05/30 08:32:12;;;;;;;0.60;0.60;;;;;;;30.06;40.99;94817.84;5072370;28;20449;-56
2022/05/30 08:34:42;;;;;;;0.67;0.40;;;;;;;30.80;41.82;94819.00;5072382;28;20814;-59
2022/05/30 08:37:13;;;;;;;0.37;0.27;;;;;;;30.22;41.39;94817.31;5072220;28;20479;-56
2022/05/30 08:42:35;;;;;;;0.30;0.30;;;;;;;30.35;39.54;94773.84;5015350;28;20521;-56
2022/05/30 08:45:08;;;;;;;0.40;0.30;;;;;;;30.82;38.51;94775.56;5071868;28;20468;-56
2022/05/30 08:47:50;;;;;;;0.50;0.30;;;;;;;30.41;41.78;94815.97;5072219;28;20510;-56
2022/05/30 08:50:35;;;;;;;1.17;0.40;;;;;;;29.02;44.02;94807.28;5072170;28;20523;-56
2022/05/30 08:53:48;;;;;;;0.33;0.30;;;;;;;29.65;44.49;94819.75;5071727;28;20923;-56
2022/05/30 08:56:24;;;;;;;1.63;0.60;;;;;;;30.01;39.49;94793.69;5070947;28;20480;-56
2022/05/30 08:59:06;;;;;;;0.40;0.37;;;;;;;30.89;39.02;94802.09;5071149;28;20523;-55
2022/05/30 09:01:38;;;;;;;0.40;0.30;;;;;;;29.99;38.42;94602.03;5071883;28;20479;-56
2022/05/30 09:04:10;;;;;;;0.60;0.33;;;;;;;30.79;37.11;94820.94;5071765;28;20511;-55
2022/05/30 09:06:44;;;;;;;0.40;0.30;;;;;;;31.54;35.61;94818.00;5072212;28;20496;-55
2022/05/30 09:09:23;;;;;;;0.40;0.37;;;;;;;31.49;36.25;94817.69;5072113;28;20507;-55
2022/05/30 09:11:56;;;;;;;0.37;0.27;;;;;;;32.10;35.29;94812.78;5071919;28;20444;-56
2022/05/30 09:14:34;;;;;;;0.50;0.40;;;;;;;31.61;34.58;94819.84;5071628;28;20785;-56
2022/05/30 09:17:07;;;;;;;0.50;0.30;;;;;;;30.96;35.87;94815.69;5071499;28;20507;-56
2022/05/30 09:19:35;;;;;;;2.93;0.50;;;;;;;32.15;34.15;94817.78;5070652;28;20437;-56
2022/05/30 09:22:05;;;;;;;0.50;0.50;;;;;;;31.51;34.12;94821.56;5071446;28;20520;-56
2022/05/30 09:24:36;;;;;;;0.43;0.37;;;;;;;31.55;34.49;94816.03;5071456;28;20487;-56
2022/05/30 09:27:08;;;;;;;0.73;0.73;;;;;;;31.79;33.95;94809.38;5071515;28;20503;-56
2022/05/30 09:29:54;;;;;;;0.67;0.67;;;;;;;32.53;33.93;94817.09;5071744;28;20504;-56
2022/05/30 09:32:34;;;;;;;1.30;0.60;;;;;;;32.89;34.64;94813.63;5071451;28;20417;-56
2022/05/30 09:35:22;;;;;;;0.30;0.30;;;;;;;33.18;34.12;94809.09;5071706;28;20863;-56
2022/05/30 09:38:05;;;;;;;0.47;0.30;;;;;;;32.00;34.08;94763.19;5071485;28;20982;-56
2022/05/30 09:40:41;;;;;;;0.50;0.40;;;;;;;32.41;33.41;94823.16;5071350;28;20428;-55
2022/05/30 09:43:12;;;;;;;0.40;0.30;;;;;;;32.86;33.05;94809.75;5071341;28;20444;-55
2022/05/30 09:45:41;;;;;;;0.30;0.30;;;;;;;32.92;34.01;94807.25;5071592;28;20857;-56
2022/05/30 09:48:14;;;;;;;0.30;0.20;;;;;;;32.34;32.77;94812.31;5071736;28;20504;-55
2022/05/30 09:50:45;;;;;;;0.40;0.30;;;;;;;32.26;33.81;94785.47;5071409;28;20421;-55
2022/05/30 09:53:14;;;;;;;0.50;0.30;;;;;;;32.39;32.05;94726.78;5071522;28;20516;-55
2022/05/30 09:55:48;;;;;;;0.30;0.20;;;;;;;32.92;33.03;94807.25;5071574;28;20843;-55
2022/05/30 09:58:17;;;;;;;0.40;0.30;;;;;;;33.79;32.30;94799.03;5071120;28;20507;-55
2022/05/30 10:00:51;;;;;;;0.30;0.30;;;;;;;34.42;32.42;94801.34;5071173;28;20453;-55
2022/05/30 10:03:30;;;;;;;0.30;0.20;;;;;;;34.63;31.66;94800.00;5071280;28;20425;-55
2022/05/30 10:06:21;;;;;;;0.40;0.40;;;;;;;35.00;31.21;94802.84;5071042;28;20870;-55
2022/05/30 10:08:52;;;;;;;0.90;0.33;;;;;;;33.88;31.24;94735.16;5070859;28;20444;-55
2022/05/30 10:11:32;;;;;;;0.30;0.20;;;;;;;34.85;30.35;94790.69;5075011;28;20475;-54
2022/05/30 10:14:17;;;;;;;0.30;0.23;;;;;;;34.72;30.73;94780.84;5075146;28;20503;-54
2022/05/30 10:16:46;;;;;;;0.60;0.50;;;;;;;35.21;29.63;94786.91;5074706;28;20500;-54
2022/05/30 10:19:30;;;;;;;0.77;0.30;;;;;;;35.21;30.25;94778.66;5074750;28;20439;-54
2022/05/30 10:28:52;;;;;;;0.40;0.30;;;;;;;34.67;28.20;94789.66;5074366;28;20854;-56
2022/05/30 10:31:36;;;;;;;0.30;0.30;;;;;;;34.67;28.67;94682.28;5074410;28;20432;-55
2022/05/30 10:34:51;;;;;;;0.30;0.30;;;;;;;34.09;27.43;94652.13;5074618;28;20886;-55
2022/05/30 10:37:54;;;;;;;0.37;0.30;;;;;;;33.93;27.85;94613.66;5012088;28;20509;-55
2022/05/30 10:40:41;;;;;;;0.50;0.40;;;;;;;33.86;27.32;94756.81;5065901;28;20474;-55
2022/05/30 10:43:18;;;;;;;1.13;1.03;;;;;;;33.98;28.82;94697.59;5073954;28;21021;-56
2022/05/30 10:46:02;;;;;;;0.40;0.30;;;;;;;35.07;30.54;94780.63;5074116;28;20456;-55
2022/05/30 10:48:37;;;;;;;0.30;0.30;;;;;;;34.79;28.89;94753.13;5074331;28;20436;-55
2022/05/30 10:51:11;;;;;;;0.30;0.23;;;;;;;35.26;29.50;94776.13;5073739;28;21010;-55
2022/05/30 10:53:49;;;;;;;0.70;0.53;;;;;;;35.39;29.44;94768.63;5074037;28;20786;-55
2022/05/30 10:56:19;;;;;;;9.20;0.50;;;;;;;34.68;28.53;94753.44;5073914;28;20218;-55
2022/05/30 11:02:08;;;;;;;0.33;0.30;;;;;;;34.98;29.84;94765.94;5073938;28;20193;-56
2022/05/30 11:04:50;;;;;;;1.13;0.33;;;;;;;33.75;29.06;94750.84;5074329;28;20441;-55
2022/05/30 11:07:48;;;;;;;0.93;0.90;;;;;;;35.38;28.35;94766.28;5073760;28;20190;-55
2022/05/30 11:10:53;;;;;;;0.30;0.20;;;;;;;35.49;28.47;94755.72;5074029;28;20278;-55
2022/05/30 11:13:44;;;;;;;0.40;0.40;;;;;;;34.75;28.44;94753.25;5073545;28;20971;-55
2022/05/30 11:16:32;;;;;;;0.40;0.30;;;;;;;35.23;27.04;94778.97;5073763;28;20196;-55
2022/05/30 11:19:10;;;;;;;0.40;0.30;;;;;;;35.36;25.26;94667.53;5073038;28;20206;-60
2022/05/30 11:21:44;;;;;;;0.30;0.20;;;;;;;36.42;26.20;94765.97;5072728;28;20191;-61
2022/05/30 11:24:12;;;;;;;0.30;0.20;;;;;;;36.45;26.78;94770.59;5073618;28;20192;-61
2022/05/30 11:26:57;;;;;;;0.50;0.30;;;;;;;36.01;26.78;94774.50;5073110;28;20240;-61
2022/05/30 11:29:56;;;;;;;0.30;0.20;;;;;;;36.80;26.35;94796.16;5073515;28;20285;-61
2022/05/30 11:32:52;;;;;;;0.30;0.30;;;;;;;34.95;27.82;94750.28;5073724;28;20193;-61
2022/05/30 11:35:33;;;;;;;0.70;0.70;;;;;;;33.21;28.47;94495.91;5073283;28;20189;-61
2022/05/30 11:38:20;;;;;;;0.40;0.30;;;;;;;35.81;26.72;94765.69;5073189;28;20256;-61
2022/05/30 11:40:58;;;;;;;1.50;1.43;;;;;;;33.78;28.08;94695.75;5073033;28;20241;-61
2022/05/30 11:43:43;;;;;;;0.40;0.30;;;;;;;35.00;28.21;94736.75;5072783;28;20206;-61
2022/05/30 11:46:21;;;;;;;0.47;0.30;;;;;;;33.53;28.68;94637.09;5073481;28;20241;-61
2022/05/30 11:48:58;;;;;;;0.50;0.50;;;;;;;34.60;27.77;94751.34;5072986;28;20193;-61
2022/05/30 11:51:42;;;;;;;0.30;0.20;;;;;;;35.61;27.66;94747.44;5073109;28;20244;-61
2022/05/30 11:54:20;;;;;;;6.00;0.40;;;;;;;35.05;26.83;94721.66;5072927;28;20654;-61
2022/05/30 11:56:56;;;;;;;0.40;0.30;;;;;;;35.15;28.25;94737.09;5072632;28;20234;-61
2022/05/30 12:00:01;;;;;;;1.43;0.53;;;;;;;35.27;26.98;94710.75;5072451;28;20621;-61
2022/05/30 12:02:49;;;;;;;0.40;0.33;;;;;;;34.67;27.72;94704.31;5066650;28;20227;-61
2022/05/30 12:05:53;;;;;;;0.40;0.37;;;;;;;35.27;28.33;94721.78;5072260;28;20230;-61
2022/05/30 12:08:59;;;;;;;0.30;0.30;;;;;;;35.34;26.03;94760.13;5069244;28;20246;-61
2022/05/30 12:11:57;;;;;;;0.30;0.20;;;;;;;35.55;26.08;94704.31;5073102;28;20245;-61
2022/05/30 12:14:50;;;;;;;0.40;0.37;;;;;;;36.19;25.97;94714.72;5072804;28;20202;-60
2022/05/30 12:17:37;;;;;;;0.30;0.20;;;;;;;36.85;24.48;94707.19;5072300;28;20289;-61
2022/05/30 12:25:54;;;;;;;0.40;0.30;;;;;;;34.36;26.90;94756.28;5072118;28;20208;-61